sensor_id;sensor_type;location;lat;lon;timestamp;temperature;humidity
1337;DHT22;662;48.814;9.318;2022-12-07T00:01:22;7.00;73.80
1337;DHT22;662;48.814;9.318;2022-12-07T00:03:50;7.00;73.80
1337;DHT22;662;48.814;9.318;2022-12-07T00:06:18;7.00;73.80
1337;DHT22;662;48.814;9.318;2022-12-07T00:08:44;7.00;73.70
1337;DHT22;662;48.814;9.318;2022-12-07T00:11:13;7.00;73.80
1337;DHT22;662;48.814;9.318;2022-12-07T00:13:39;7.00;73.70
1337;DHT22;662;48.814;9.318;2022-12-07T00:16:08;7.00;73.80
1337;DHT22;662;48.814;9.318;2022-12-07T00:18:35;7.00;73.80
1337;DHT22;662;48.814;9.318;2022-12-07T00:21:06;7.00;73.80
1337;DHT22;662;48.814;9.318;2022-12-07T00:23:33;7.00;73.80
1337;DHT22;662;48.814;9.318;2022-12-07T00:26:29;7.00;73.80
1337;DHT22;662;48.814;9.318;2022-12-07T00:28:59;7.00;73.90
1337;DHT22;662;48.814;9.318;2022-12-07T00:31:33;7.00;73.90
1337;DHT22;662;48.814;9.318;2022-12-07T00:34:01;7.00;73.80
1337;DHT22;662;48.814;9.318;2022-12-07T00:36:26;7.00;73.80
1337;DHT22;662;48.814;9.318;2022-12-07T00:38:52;7.00;73.90
1337;DHT22;662;48.814;9.318;2022-12-07T00:41:20;7.00;73.90
1337;DHT22;662;48.814;9.318;2022-12-07T00:43:47;7.00;73.80
1337;DHT22;662;48.814;9.318;2022-12-07T00:46:14;7.00;73.80
1337;DHT22;662;48.814;9.318;2022-12-07T00:48:40;7.00;73.80
1337;DHT22;662;48.814;9.318;2022-12-07T00:51:07;7.00;73.80
1337;DHT22;662;48.814;9.318;2022-12-07T00:53:36;7.00;73.80
1337;DHT22;662;48.814;9.318;2022-12-07T00:56:10;7.00;73.80
1337;DHT22;662;48.814;9.318;2022-12-07T00:58:36;7.00;73.80
1337;DHT22;662;48.814;9.318;2022-12-07T01:01:04;7.00;73.80
1337;DHT22;662;48.814;9.318;2022-12-07T01:03:30;7.00;73.80
1337;DHT22;662;48.814;9.318;2022-12-07T01:05:56;7.00;73.80
1337;DHT22;662;48.814;9.318;2022-12-07T01:08:23;7.00;73.70
1337;DHT22;662;48.814;9.318;2022-12-07T01:10:58;7.00;73.80
1337;DHT22;662;48.814;9.318;2022-12-07T01:13:24;7.00;73.80
1337;DHT22;662;48.814;9.318;2022-12-07T01:15:49;7.00;73.80
1337;DHT22;662;48.814;9.318;2022-12-07T01:18:15;7.00;73.70
1337;DHT22;662;48.814;9.318;2022-12-07T01:20:40;7.00;73.70
1337;DHT22;662;48.814;9.318;2022-12-07T01:23:06;7.00;73.70
1337;DHT22;662;48.814;9.318;2022-12-07T01:25:32;7.00;73.70
1337;DHT22;662;48.814;9.318;2022-12-07T01:27:57;7.00;73.70
1337;DHT22;662;48.814;9.318;2022-12-07T01:30:23;7.00;73.70
1337;DHT22;662;48.814;9.318;2022-12-07T01:32:49;7.00;73.70
1337;DHT22;662;48.814;9.318;2022-12-07T01:35:14;7.00;73.60
1337;DHT22;662;48.814;9.318;2022-12-07T01:37:40;7.00;73.60
1337;DHT22;662;48.814;9.318;2022-12-07T01:40:07;7.00;73.60
1337;DHT22;662;48.814;9.318;2022-12-07T01:42:33;7.00;73.70
1337;DHT22;662;48.814;9.318;2022-12-07T01:45:39;7.00;73.60
1337;DHT22;662;48.814;9.318;2022-12-07T01:48:06;7.00;73.60
1337;DHT22;662;48.814;9.318;2022-12-07T01:50:33;6.90;73.50
1337;DHT22;662;48.814;9.318;2022-12-07T01:53:01;6.90;73.50
1337;DHT22;662;48.814;9.318;2022-12-07T01:55:29;6.90;73.50
1337;DHT22;662;48.814;9.318;2022-12-07T01:57:55;6.90;73.50
1337;DHT22;662;48.814;9.318;2022-12-07T02:00:22;6.90;73.50
1337;DHT22;662;48.814;9.318;2022-12-07T02:03:13;6.90;73.40
1337;DHT22;662;48.814;9.318;2022-12-07T02:05:41;6.90;73.40
1337;DHT22;662;48.814;9.318;2022-12-07T02:08:09;6.90;73.40
1337;DHT22;662;48.814;9.318;2022-12-07T02:10:36;6.90;73.40
1337;DHT22;662;48.814;9.318;2022-12-07T02:13:06;6.90;73.50
1337;DHT22;662;48.814;9.318;2022-12-07T02:27:06;6.80;73.00
1337;DHT22;662;48.814;9.318;2022-12-07T02:32:55;6.80;73.00
1337;DHT22;662;48.814;9.318;2022-12-07T02:35:28;6.80;72.80
1337;DHT22;662;48.814;9.318;2022-12-07T02:38:06;6.80;73.50
1337;DHT22;662;48.814;9.318;2022-12-07T02:43:38;6.80;72.70
1337;DHT22;662;48.814;9.318;2022-12-07T02:46:11;6.80;72.80
1337;DHT22;662;48.814;9.318;2022-12-07T02:48:39;6.70;72.60
1337;DHT22;662;48.814;9.318;2022-12-07T02:51:06;6.70;72.50
1337;DHT22;662;48.814;9.318;2022-12-07T02:53:32;6.70;72.40
1337;DHT22;662;48.814;9.318;2022-12-07T02:56:06;6.70;72.50
1337;DHT22;662;48.814;9.318;2022-12-07T03:04:05;6.60;72.50
1337;DHT22;662;48.814;9.318;2022-12-07T03:06:39;6.70;72.60
1337;DHT22;662;48.814;9.318;2022-12-07T03:09:21;6.60;72.50
1337;DHT22;662;48.814;9.318;2022-12-07T03:12:00;6.60;72.50
1337;DHT22;662;48.814;9.318;2022-12-07T03:14:38;6.60;72.50
1337;DHT22;662;48.814;9.318;2022-12-07T03:17:12;6.50;72.50
1337;DHT22;662;48.814;9.318;2022-12-07T03:19:40;6.50;72.50
1337;DHT22;662;48.814;9.318;2022-12-07T03:22:09;6.50;72.50
1337;DHT22;662;48.814;9.318;2022-12-07T03:24:43;6.50;72.50
1337;DHT22;662;48.814;9.318;2022-12-07T03:27:21;6.50;72.60
1337;DHT22;662;48.814;9.318;2022-12-07T03:29:57;6.50;72.70
1337;DHT22;662;48.814;9.318;2022-12-07T03:32:29;6.50;72.70
1337;DHT22;662;48.814;9.318;2022-12-07T03:35:08;6.50;72.70
1337;DHT22;662;48.814;9.318;2022-12-07T03:37:39;6.50;72.70
1337;DHT22;662;48.814;9.318;2022-12-07T03:40:22;6.50;72.80
1337;DHT22;662;48.814;9.318;2022-12-07T03:42:51;6.50;72.90
1337;DHT22;662;48.814;9.318;2022-12-07T03:45:18;6.50;72.90
1337;DHT22;662;48.814;9.318;2022-12-07T03:53:40;6.50;73.10
1337;DHT22;662;48.814;9.318;2022-12-07T03:56:07;6.50;73.10
1337;DHT22;662;48.814;9.318;2022-12-07T03:58:34;6.50;73.10
1337;DHT22;662;48.814;9.318;2022-12-07T04:01:00;6.40;73.00
1337;DHT22;662;48.814;9.318;2022-12-07T04:03:25;6.40;73.10
1337;DHT22;662;48.814;9.318;2022-12-07T04:05:51;6.40;73.10
1337;DHT22;662;48.814;9.318;2022-12-07T04:08:16;6.40;73.00
1337;DHT22;662;48.814;9.318;2022-12-07T04:10:42;6.40;73.00
1337;DHT22;662;48.814;9.318;2022-12-07T04:13:08;6.40;73.00
1337;DHT22;662;48.814;9.318;2022-12-07T04:15:33;6.40;73.00
1337;DHT22;662;48.814;9.318;2022-12-07T04:17:59;6.30;72.80
1337;DHT22;662;48.814;9.318;2022-12-07T04:20:25;6.30;72.80
1337;DHT22;662;48.814;9.318;2022-12-07T04:22:50;6.30;72.80
1337;DHT22;662;48.814;9.318;2022-12-07T04:25:16;6.20;72.60
1337;DHT22;662;48.814;9.318;2022-12-07T04:27:42;6.20;72.70
1337;DHT22;662;48.814;9.318;2022-12-07T04:30:07;6.10;72.60
1337;DHT22;662;48.814;9.318;2022-12-07T04:32:33;6.10;72.60
1337;DHT22;662;48.814;9.318;2022-12-07T04:34:59;6.00;72.50
1337;DHT22;662;48.814;9.318;2022-12-07T04:37:24;6.00;72.60
1337;DHT22;662;48.814;9.318;2022-12-07T04:39:50;5.90;72.60
1337;DHT22;662;48.814;9.318;2022-12-07T04:42:16;5.80;73.60
1337;DHT22;662;48.814;9.318;2022-12-07T04:44:42;5.70;73.10
1337;DHT22;662;48.814;9.318;2022-12-07T04:47:07;5.60;73.50
1337;DHT22;662;48.814;9.318;2022-12-07T04:49:33;5.60;73.80
1337;DHT22;662;48.814;9.318;2022-12-07T04:51:59;5.60;74.00
1337;DHT22;662;48.814;9.318;2022-12-07T04:54:24;5.60;74.00
1337;DHT22;662;48.814;9.318;2022-12-07T04:56:50;5.60;74.10
1337;DHT22;662;48.814;9.318;2022-12-07T04:59:16;5.70;74.30
1337;DHT22;662;48.814;9.318;2022-12-07T05:01:42;5.70;74.20
1337;DHT22;662;48.814;9.318;2022-12-07T05:04:08;5.70;74.20
1337;DHT22;662;48.814;9.318;2022-12-07T05:06:34;5.70;74.20
1337;DHT22;662;48.814;9.318;2022-12-07T05:09:00;5.70;74.10
1337;DHT22;662;48.814;9.318;2022-12-07T05:11:26;5.70;74.10
1337;DHT22;662;48.814;9.318;2022-12-07T05:14:10;5.80;74.20
1337;DHT22;662;48.814;9.318;2022-12-07T05:16:36;5.80;74.10
1337;DHT22;662;48.814;9.318;2022-12-07T05:19:02;5.80;73.90
1337;DHT22;662;48.814;9.318;2022-12-07T05:21:28;5.80;73.70
1337;DHT22;662;48.814;9.318;2022-12-07T05:23:54;5.80;73.50
1337;DHT22;662;48.814;9.318;2022-12-07T05:26:19;5.70;73.20
1337;DHT22;662;48.814;9.318;2022-12-07T05:28:45;5.70;73.10
1337;DHT22;662;48.814;9.318;2022-12-07T05:31:14;5.70;73.10
1337;DHT22;662;48.814;9.318;2022-12-07T05:33:40;5.70;73.00
1337;DHT22;662;48.814;9.318;2022-12-07T05:36:06;5.70;73.10
1337;DHT22;662;48.814;9.318;2022-12-07T05:38:32;5.70;73.20
1337;DHT22;662;48.814;9.318;2022-12-07T05:41:03;5.70;73.30
1337;DHT22;662;48.814;9.318;2022-12-07T05:43:29;5.70;73.30
1337;DHT22;662;48.814;9.318;2022-12-07T05:45:55;5.70;73.30
1337;DHT22;662;48.814;9.318;2022-12-07T05:48:20;5.70;73.30
1337;DHT22;662;48.814;9.318;2022-12-07T05:50:49;5.70;73.30
1337;DHT22;662;48.814;9.318;2022-12-07T05:53:15;5.70;73.30
1337;DHT22;662;48.814;9.318;2022-12-07T05:55:41;5.70;73.40
1337;DHT22;662;48.814;9.318;2022-12-07T05:58:07;5.70;73.40
1337;DHT22;662;48.814;9.318;2022-12-07T06:00:53;5.70;73.30
1337;DHT22;662;48.814;9.318;2022-12-07T06:03:19;5.70;73.30
1337;DHT22;662;48.814;9.318;2022-12-07T06:05:44;5.70;73.30
1337;DHT22;662;48.814;9.318;2022-12-07T06:08:10;5.70;73.30
1337;DHT22;662;48.814;9.318;2022-12-07T06:10:36;5.60;73.20
1337;DHT22;662;48.814;9.318;2022-12-07T06:13:01;5.60;73.30
1337;DHT22;662;48.814;9.318;2022-12-07T06:15:27;5.50;73.30
1337;DHT22;662;48.814;9.318;2022-12-07T06:17:52;5.50;73.50
1337;DHT22;662;48.814;9.318;2022-12-07T06:20:18;5.50;73.70
1337;DHT22;662;48.814;9.318;2022-12-07T06:22:44;5.40;73.70
1337;DHT22;662;48.814;9.318;2022-12-07T06:25:09;5.50;73.80
1337;DHT22;662;48.814;9.318;2022-12-07T06:27:35;5.40;73.70
1337;DHT22;662;48.814;9.318;2022-12-07T06:30:01;5.40;73.80
1337;DHT22;662;48.814;9.318;2022-12-07T06:32:36;5.40;73.90
1337;DHT22;662;48.814;9.318;2022-12-07T06:35:01;5.50;74.10
1337;DHT22;662;48.814;9.318;2022-12-07T06:37:27;5.50;74.00
1337;DHT22;662;48.814;9.318;2022-12-07T06:39:53;5.50;73.90
1337;DHT22;662;48.814;9.318;2022-12-07T06:42:18;5.50;73.90
1337;DHT22;662;48.814;9.318;2022-12-07T06:44:44;5.50;74.00
1337;DHT22;662;48.814;9.318;2022-12-07T06:47:10;5.50;73.90
1337;DHT22;662;48.814;9.318;2022-12-07T06:49:36;5.50;73.90
1337;DHT22;662;48.814;9.318;2022-12-07T06:52:02;5.50;74.00
1337;DHT22;662;48.814;9.318;2022-12-07T06:54:35;5.50;73.90
1337;DHT22;662;48.814;9.318;2022-12-07T06:57:07;5.60;74.00
1337;DHT22;662;48.814;9.318;2022-12-07T06:59:36;5.60;74.00
1337;DHT22;662;48.814;9.318;2022-12-07T07:02:01;5.60;73.90
1337;DHT22;662;48.814;9.318;2022-12-07T07:04:27;5.70;73.90
1337;DHT22;662;48.814;9.318;2022-12-07T07:06:52;5.60;73.80
1337;DHT22;662;48.814;9.318;2022-12-07T07:09:18;5.60;73.70
1337;DHT22;662;48.814;9.318;2022-12-07T07:11:44;5.70;73.70
1337;DHT22;662;48.814;9.318;2022-12-07T07:14:09;5.70;73.50
1337;DHT22;662;48.814;9.318;2022-12-07T07:16:35;5.70;73.50
1337;DHT22;662;48.814;9.318;2022-12-07T07:19:00;5.70;73.40
1337;DHT22;662;48.814;9.318;2022-12-07T07:21:26;5.70;73.40
1337;DHT22;662;48.814;9.318;2022-12-07T07:23:52;5.70;73.30
1337;DHT22;662;48.814;9.318;2022-12-07T07:26:17;5.80;73.50
1337;DHT22;662;48.814;9.318;2022-12-07T07:28:43;5.80;73.40
1337;DHT22;662;48.814;9.318;2022-12-07T07:31:08;5.80;73.20
1337;DHT22;662;48.814;9.318;2022-12-07T07:33:34;5.80;73.10
1337;DHT22;662;48.814;9.318;2022-12-07T07:36:00;5.80;73.00
1337;DHT22;662;48.814;9.318;2022-12-07T07:38:25;5.80;72.90
1337;DHT22;662;48.814;9.318;2022-12-07T07:40:51;5.80;72.90
1337;DHT22;662;48.814;9.318;2022-12-07T07:43:16;5.90;73.00
1337;DHT22;662;48.814;9.318;2022-12-07T07:45:42;5.90;72.90
1337;DHT22;662;48.814;9.318;2022-12-07T07:48:09;5.90;72.80
1337;DHT22;662;48.814;9.318;2022-12-07T07:50:34;5.90;72.70
1337;DHT22;662;48.814;9.318;2022-12-07T07:53:00;6.00;72.70
1337;DHT22;662;48.814;9.318;2022-12-07T07:55:26;6.00;72.50
1337;DHT22;662;48.814;9.318;2022-12-07T07:57:51;6.10;72.60
1337;DHT22;662;48.814;9.318;2022-12-07T08:00:17;6.10;72.20
1337;DHT22;662;48.814;9.318;2022-12-07T08:02:43;6.10;72.20
1337;DHT22;662;48.814;9.318;2022-12-07T08:05:11;6.10;72.00
1337;DHT22;662;48.814;9.318;2022-12-07T08:07:37;6.20;71.90
1337;DHT22;662;48.814;9.318;2022-12-07T08:10:03;6.20;71.70
1337;DHT22;662;48.814;9.318;2022-12-07T08:12:29;6.20;71.60
1337;DHT22;662;48.814;9.318;2022-12-07T08:14:54;6.30;71.50
1337;DHT22;662;48.814;9.318;2022-12-07T08:17:20;6.30;71.40
1337;DHT22;662;48.814;9.318;2022-12-07T08:19:46;6.30;71.30
1337;DHT22;662;48.814;9.318;2022-12-07T08:22:11;6.30;71.40
1337;DHT22;662;48.814;9.318;2022-12-07T08:24:37;6.30;71.40
1337;DHT22;662;48.814;9.318;2022-12-07T08:27:03;6.40;71.60
1337;DHT22;662;48.814;9.318;2022-12-07T08:29:28;6.40;71.60
1337;DHT22;662;48.814;9.318;2022-12-07T08:31:54;6.40;71.60
1337;DHT22;662;48.814;9.318;2022-12-07T08:34:20;6.50;71.60
1337;DHT22;662;48.814;9.318;2022-12-07T08:36:45;6.50;71.60
1337;DHT22;662;48.814;9.318;2022-12-07T08:39:11;6.60;71.50
1337;DHT22;662;48.814;9.318;2022-12-07T08:41:37;6.60;71.20
1337;DHT22;662;48.814;9.318;2022-12-07T08:44:03;6.70;71.10
1337;DHT22;662;48.814;9.318;2022-12-07T08:46:56;6.70;70.90
1337;DHT22;662;48.814;9.318;2022-12-07T08:49:38;6.80;70.80
1337;DHT22;662;48.814;9.318;2022-12-07T08:52:05;6.80;70.30
1337;DHT22;662;48.814;9.318;2022-12-07T08:54:33;6.90;70.00
1337;DHT22;662;48.814;9.318;2022-12-07T08:57:00;6.90;69.80
1337;DHT22;662;48.814;9.318;2022-12-07T08:59:26;6.90;69.60
1337;DHT22;662;48.814;9.318;2022-12-07T09:01:53;7.00;69.00
1337;DHT22;662;48.814;9.318;2022-12-07T09:04:19;7.00;67.80
1337;DHT22;662;48.814;9.318;2022-12-07T09:06:46;7.10;67.10
1337;DHT22;662;48.814;9.318;2022-12-07T09:09:14;7.10;66.60
1337;DHT22;662;48.814;9.318;2022-12-07T09:11:40;7.10;65.10
1337;DHT22;662;48.814;9.318;2022-12-07T09:14:06;7.20;64.20
1337;DHT22;662;48.814;9.318;2022-12-07T09:16:31;7.20;63.60
1337;DHT22;662;48.814;9.318;2022-12-07T09:18:57;7.20;63.50
1337;DHT22;662;48.814;9.318;2022-12-07T09:21:22;7.30;63.00
1337;DHT22;662;48.814;9.318;2022-12-07T09:23:48;7.30;62.80
1337;DHT22;662;48.814;9.318;2022-12-07T09:26:14;7.40;62.50
1337;DHT22;662;48.814;9.318;2022-12-07T09:28:39;7.50;62.50
1337;DHT22;662;48.814;9.318;2022-12-07T09:31:05;7.50;62.00
1337;DHT22;662;48.814;9.318;2022-12-07T09:33:31;7.60;62.10
1337;DHT22;662;48.814;9.318;2022-12-07T09:35:57;7.60;61.60
1337;DHT22;662;48.814;9.318;2022-12-07T09:38:23;7.70;60.80
1337;DHT22;662;48.814;9.318;2022-12-07T09:40:53;7.70;60.50
1337;DHT22;662;48.814;9.318;2022-12-07T09:43:22;7.70;59.40
1337;DHT22;662;48.814;9.318;2022-12-07T09:45:54;7.80;59.30
1337;DHT22;662;48.814;9.318;2022-12-07T09:48:34;7.80;59.50
1337;DHT22;662;48.814;9.318;2022-12-07T09:51:02;7.90;59.60
1337;DHT22;662;48.814;9.318;2022-12-07T09:53:37;8.00;59.90
1337;DHT22;662;48.814;9.318;2022-12-07T09:56:04;8.00;60.00
1337;DHT22;662;48.814;9.318;2022-12-07T09:58:31;8.10;60.00
1337;DHT22;662;48.814;9.318;2022-12-07T10:01:16;8.10;59.50
1337;DHT22;662;48.814;9.318;2022-12-07T10:03:52;8.10;59.00
1337;DHT22;662;48.814;9.318;2022-12-07T10:06:18;8.10;58.70
1337;DHT22;662;48.814;9.318;2022-12-07T10:08:44;8.10;59.00
1337;DHT22;662;48.814;9.318;2022-12-07T10:11:10;8.10;59.30
1337;DHT22;662;48.814;9.318;2022-12-07T10:13:42;8.10;59.00
1337;DHT22;662;48.814;9.318;2022-12-07T10:19:30;8.10;59.30
1337;DHT22;662;48.814;9.318;2022-12-07T10:24:24;8.10;59.40
1337;DHT22;662;48.814;9.318;2022-12-07T10:26:51;8.10;59.40
1337;DHT22;662;48.814;9.318;2022-12-07T10:29:27;8.10;59.60
1337;DHT22;662;48.814;9.318;2022-12-07T10:32:43;8.10;59.50
1337;DHT22;662;48.814;9.318;2022-12-07T10:34:49;8.10;59.60
1337;DHT22;662;48.814;9.318;2022-12-07T10:37:16;8.00;59.60
1337;DHT22;662;48.814;9.318;2022-12-07T10:39:51;8.00;59.70
1337;DHT22;662;48.814;9.318;2022-12-07T10:42:18;8.00;59.80
1337;DHT22;662;48.814;9.318;2022-12-07T10:44:45;8.10;59.90
1337;DHT22;662;48.814;9.318;2022-12-07T10:50:19;8.00;59.90
1337;DHT22;662;48.814;9.318;2022-12-07T10:53:01;8.00;60.00
1337;DHT22;662;48.814;9.318;2022-12-07T10:58:31;8.00;60.10
1337;DHT22;662;48.814;9.318;2022-12-07T11:01:33;8.00;60.10
1337;DHT22;662;48.814;9.318;2022-12-07T11:15:33;8.00;60.60
1337;DHT22;662;48.814;9.318;2022-12-07T11:17:51;8.00;60.60
1337;DHT22;662;48.814;9.318;2022-12-07T11:32:25;8.00;60.80
1337;DHT22;662;48.814;9.318;2022-12-07T11:37:42;8.00;61.20
1337;DHT22;662;48.814;9.318;2022-12-07T11:42:39;8.00;61.60
1337;DHT22;662;48.814;9.318;2022-12-07T11:47:48;8.00;62.10
1337;DHT22;662;48.814;9.318;2022-12-07T11:53:17;7.90;62.40
1337;DHT22;662;48.814;9.318;2022-12-07T11:56:03;7.90;62.60
1337;DHT22;662;48.814;9.318;2022-12-07T12:03:47;7.80;63.60
1337;DHT22;662;48.814;9.318;2022-12-07T12:06:14;7.80;63.80
1337;DHT22;662;48.814;9.318;2022-12-07T12:08:44;7.70;64.00
1337;DHT22;662;48.814;9.318;2022-12-07T12:14:17;7.60;64.40
1337;DHT22;662;48.814;9.318;2022-12-07T12:20:03;7.60;64.80
1337;DHT22;662;48.814;9.318;2022-12-07T12:23:01;7.60;65.00
1337;DHT22;662;48.814;9.318;2022-12-07T12:25:50;7.50;65.30
1337;DHT22;662;48.814;9.318;2022-12-07T12:28:32;7.50;65.30
1337;DHT22;662;48.814;9.318;2022-12-07T12:31:13;7.50;65.30
1337;DHT22;662;48.814;9.318;2022-12-07T12:33:49;7.60;65.50
1337;DHT22;662;48.814;9.318;2022-12-07T12:38:50;7.50;65.50
1337;DHT22;662;48.814;9.318;2022-12-07T12:41:53;7.60;65.60
1337;DHT22;662;48.814;9.318;2022-12-07T12:46:57;7.60;65.70
1337;DHT22;662;48.814;9.318;2022-12-07T12:51:55;7.60;65.70
1337;DHT22;662;48.814;9.318;2022-12-07T12:54:26;7.60;65.70
1337;DHT22;662;48.814;9.318;2022-12-07T12:59:32;7.60;65.70
1337;DHT22;662;48.814;9.318;2022-12-07T13:10:36;7.60;65.60
1337;DHT22;662;48.814;9.318;2022-12-07T13:15:46;7.60;65.50
1337;DHT22;662;48.814;9.318;2022-12-07T13:31:38;7.70;65.30
1337;DHT22;662;48.814;9.318;2022-12-07T13:34:26;7.70;65.40
1337;DHT22;662;48.814;9.318;2022-12-07T13:36:51;7.70;65.30
1337;DHT22;662;48.814;9.318;2022-12-07T13:39:18;7.70;65.40
1337;DHT22;662;48.814;9.318;2022-12-07T13:41:45;7.70;65.50
1337;DHT22;662;48.814;9.318;2022-12-07T13:44:16;7.70;65.50
1337;DHT22;662;48.814;9.318;2022-12-07T13:46:53;7.70;65.50
1337;DHT22;662;48.814;9.318;2022-12-07T13:50:00;7.70;65.40
1337;DHT22;662;48.814;9.318;2022-12-07T13:52:29;7.70;65.40
1337;DHT22;662;48.814;9.318;2022-12-07T13:54:59;7.70;65.30
1337;DHT22;662;48.814;9.318;2022-12-07T13:57:26;7.70;65.40
1337;DHT22;662;48.814;9.318;2022-12-07T13:59:53;7.70;65.40
1337;DHT22;662;48.814;9.318;2022-12-07T14:02:19;7.70;65.40
1337;DHT22;662;48.814;9.318;2022-12-07T14:04:47;7.70;65.40
1337;DHT22;662;48.814;9.318;2022-12-07T14:07:25;7.70;65.40
1337;DHT22;662;48.814;9.318;2022-12-07T14:10:03;7.70;65.40
1337;DHT22;662;48.814;9.318;2022-12-07T14:12:30;7.70;65.50
1337;DHT22;662;48.814;9.318;2022-12-07T14:14:58;7.70;65.60
1337;DHT22;662;48.814;9.318;2022-12-07T14:17:26;7.70;65.60
1337;DHT22;662;48.814;9.318;2022-12-07T14:20:03;7.60;65.60
1337;DHT22;662;48.814;9.318;2022-12-07T14:22:35;7.70;65.80
1337;DHT22;662;48.814;9.318;2022-12-07T14:27:38;7.60;65.40
1337;DHT22;662;48.814;9.318;2022-12-07T14:30:05;7.60;65.20
1337;DHT22;662;48.814;9.318;2022-12-07T14:32:34;7.60;65.30
1337;DHT22;662;48.814;9.318;2022-12-07T14:35:12;7.60;65.40
1337;DHT22;662;48.814;9.318;2022-12-07T14:37:40;7.60;65.50
1337;DHT22;662;48.814;9.318;2022-12-07T14:40:06;7.60;65.50
1337;DHT22;662;48.814;9.318;2022-12-07T14:42:33;7.60;65.50
1337;DHT22;662;48.814;9.318;2022-12-07T14:44:59;7.60;65.50
1337;DHT22;662;48.814;9.318;2022-12-07T14:47:26;7.60;65.40
1337;DHT22;662;48.814;9.318;2022-12-07T14:49:52;7.70;65.50
1337;DHT22;662;48.814;9.318;2022-12-07T14:52:21;7.70;65.50
1337;DHT22;662;48.814;9.318;2022-12-07T14:54:46;7.60;65.40
1337;DHT22;662;48.814;9.318;2022-12-07T14:57:12;7.60;65.50
1337;DHT22;662;48.814;9.318;2022-12-07T14:59:38;7.60;65.50
1337;DHT22;662;48.814;9.318;2022-12-07T15:02:05;7.60;65.60
1337;DHT22;662;48.814;9.318;2022-12-07T15:04:30;7.60;65.70
1337;DHT22;662;48.814;9.318;2022-12-07T15:07:02;7.60;65.80
1337;DHT22;662;48.814;9.318;2022-12-07T15:09:28;7.60;66.60
1337;DHT22;662;48.814;9.318;2022-12-07T15:11:54;7.60;65.90
1337;DHT22;662;48.814;9.318;2022-12-07T15:14:20;7.50;65.90
1337;DHT22;662;48.814;9.318;2022-12-07T15:16:45;7.50;66.00
1337;DHT22;662;48.814;9.318;2022-12-07T15:19:17;7.50;66.10
1337;DHT22;662;48.814;9.318;2022-12-07T15:21:43;7.50;66.20
1337;DHT22;662;48.814;9.318;2022-12-07T15:24:10;7.50;66.30
1337;DHT22;662;48.814;9.318;2022-12-07T15:26:36;7.50;66.50
1337;DHT22;662;48.814;9.318;2022-12-07T15:29:02;7.40;66.50
1337;DHT22;662;48.814;9.318;2022-12-07T15:31:28;7.40;66.60
1337;DHT22;662;48.814;9.318;2022-12-07T15:33:54;7.40;66.70
1337;DHT22;662;48.814;9.318;2022-12-07T15:36:21;7.30;66.70
1337;DHT22;662;48.814;9.318;2022-12-07T15:38:48;7.30;66.70
1337;DHT22;662;48.814;9.318;2022-12-07T15:41:13;7.30;66.90
1337;DHT22;662;48.814;9.318;2022-12-07T15:43:39;7.30;66.90
1337;DHT22;662;48.814;9.318;2022-12-07T15:46:23;7.20;67.00
1337;DHT22;662;48.814;9.318;2022-12-07T15:48:49;7.20;67.10
1337;DHT22;662;48.814;9.318;2022-12-07T15:51:15;7.20;67.20
1337;DHT22;662;48.814;9.318;2022-12-07T15:53:40;7.10;67.20
1337;DHT22;662;48.814;9.318;2022-12-07T15:56:06;7.10;67.30
1337;DHT22;662;48.814;9.318;2022-12-07T15:58:32;7.10;67.30
1337;DHT22;662;48.814;9.318;2022-12-07T16:00:58;7.10;67.50
1337;DHT22;662;48.814;9.318;2022-12-07T16:03:23;7.10;68.30
1337;DHT22;662;48.814;9.318;2022-12-07T16:05:50;7.10;67.70
1337;DHT22;662;48.814;9.318;2022-12-07T16:08:16;7.10;67.70
1337;DHT22;662;48.814;9.318;2022-12-07T16:10:41;7.10;67.90
1337;DHT22;662;48.814;9.318;2022-12-07T16:13:09;7.10;67.90
1337;DHT22;662;48.814;9.318;2022-12-07T16:15:41;7.10;67.90
1337;DHT22;662;48.814;9.318;2022-12-07T16:18:07;7.10;67.90
1337;DHT22;662;48.814;9.318;2022-12-07T16:20:33;7.10;68.00
1337;DHT22;662;48.814;9.318;2022-12-07T16:22:59;7.10;68.00
1337;DHT22;662;48.814;9.318;2022-12-07T16:25:25;7.10;68.00
1337;DHT22;662;48.814;9.318;2022-12-07T16:27:53;7.10;68.10
1337;DHT22;662;48.814;9.318;2022-12-07T16:30:19;7.10;68.10
1337;DHT22;662;48.814;9.318;2022-12-07T16:32:45;7.10;68.10
1337;DHT22;662;48.814;9.318;2022-12-07T16:35:11;7.10;68.20
1337;DHT22;662;48.814;9.318;2022-12-07T16:37:38;7.10;68.10
1337;DHT22;662;48.814;9.318;2022-12-07T16:40:04;7.00;67.70
1337;DHT22;662;48.814;9.318;2022-12-07T16:42:32;7.00;67.60
1337;DHT22;662;48.814;9.318;2022-12-07T16:44:58;7.00;67.60
1337;DHT22;662;48.814;9.318;2022-12-07T16:47:24;7.00;67.50
1337;DHT22;662;48.814;9.318;2022-12-07T16:49:50;6.90;67.40
1337;DHT22;662;48.814;9.318;2022-12-07T16:52:16;6.90;67.40
1337;DHT22;662;48.814;9.318;2022-12-07T16:54:41;6.90;67.40
1337;DHT22;662;48.814;9.318;2022-12-07T16:57:07;6.90;67.40
1337;DHT22;662;48.814;9.318;2022-12-07T16:59:33;6.90;67.20
1337;DHT22;662;48.814;9.318;2022-12-07T17:01:58;6.80;66.90
1337;DHT22;662;48.814;9.318;2022-12-07T17:04:24;6.80;66.90
1337;DHT22;662;48.814;9.318;2022-12-07T17:06:49;6.80;67.00
1337;DHT22;662;48.814;9.318;2022-12-07T17:09:15;6.80;67.10
1337;DHT22;662;48.814;9.318;2022-12-07T17:11:44;6.80;67.20
1337;DHT22;662;48.814;9.318;2022-12-07T17:14:09;6.80;67.90
1337;DHT22;662;48.814;9.318;2022-12-07T17:16:53;6.70;67.00
1337;DHT22;662;48.814;9.318;2022-12-07T17:19:19;6.70;66.70
1337;DHT22;662;48.814;9.318;2022-12-07T17:21:46;6.70;66.60
1337;DHT22;662;48.814;9.318;2022-12-07T17:24:15;6.60;66.50
1337;DHT22;662;48.814;9.318;2022-12-07T17:26:43;6.60;66.40
1337;DHT22;662;48.814;9.318;2022-12-07T17:29:12;6.60;66.30
1337;DHT22;662;48.814;9.318;2022-12-07T17:31:38;6.50;66.30
1337;DHT22;662;48.814;9.318;2022-12-07T17:34:08;6.50;66.40
1337;DHT22;662;48.814;9.318;2022-12-07T17:36:34;6.50;66.40
1337;DHT22;662;48.814;9.318;2022-12-07T17:39:00;6.50;66.40
1337;DHT22;662;48.814;9.318;2022-12-07T17:41:28;6.50;66.60
1337;DHT22;662;48.814;9.318;2022-12-07T17:44:15;6.50;66.60
1337;DHT22;662;48.814;9.318;2022-12-07T17:46:42;6.40;66.50
1337;DHT22;662;48.814;9.318;2022-12-07T17:49:08;6.50;66.70
1337;DHT22;662;48.814;9.318;2022-12-07T17:51:33;6.50;66.80
1337;DHT22;662;48.814;9.318;2022-12-07T17:54:18;6.50;66.90
1337;DHT22;662;48.814;9.318;2022-12-07T17:56:44;6.50;66.80
1337;DHT22;662;48.814;9.318;2022-12-07T17:59:10;6.50;66.80
1337;DHT22;662;48.814;9.318;2022-12-07T18:01:37;6.50;66.60
1337;DHT22;662;48.814;9.318;2022-12-07T18:04:03;6.50;66.60
1337;DHT22;662;48.814;9.318;2022-12-07T18:06:30;6.50;66.60
1337;DHT22;662;48.814;9.318;2022-12-07T18:08:56;6.50;66.60
1337;DHT22;662;48.814;9.318;2022-12-07T18:11:22;6.50;66.70
1337;DHT22;662;48.814;9.318;2022-12-07T18:13:48;6.50;66.70
1337;DHT22;662;48.814;9.318;2022-12-07T18:16:16;6.50;66.60
1337;DHT22;662;48.814;9.318;2022-12-07T18:18:42;6.50;66.60
1337;DHT22;662;48.814;9.318;2022-12-07T18:21:16;6.50;66.60
1337;DHT22;662;48.814;9.318;2022-12-07T18:23:45;6.50;66.70
1337;DHT22;662;48.814;9.318;2022-12-07T18:26:12;6.50;66.70
1337;DHT22;662;48.814;9.318;2022-12-07T18:28:39;6.50;66.70
1337;DHT22;662;48.814;9.318;2022-12-07T18:31:05;6.50;66.80
1337;DHT22;662;48.814;9.318;2022-12-07T18:33:30;6.50;66.80
1337;DHT22;662;48.814;9.318;2022-12-07T18:35:58;6.50;66.70
1337;DHT22;662;48.814;9.318;2022-12-07T18:38:24;6.50;66.70
1337;DHT22;662;48.814;9.318;2022-12-07T18:40:50;6.50;66.70
1337;DHT22;662;48.814;9.318;2022-12-07T18:43:15;6.50;66.80
1337;DHT22;662;48.814;9.318;2022-12-07T18:45:43;6.50;66.80
1337;DHT22;662;48.814;9.318;2022-12-07T18:48:13;6.50;66.80